Clayton, Indiana
Current Conditions -  °F | °C
As of 1:54 AM on Wednesday 22 Oct 2014 (Local Time) from KIND Reporting Station
Few Clouds Few Clouds  
Wind Chill: 39°   Ceiling: Unl
Heat Index: 44°   Visibility: 10mi
Dew Point: 36°   Wind: 10mph
Humidity: 73%   Direction: 30°NNE
Pressure: 30.21"   Gusts: NA
Location:  39.69°N, 86.52°W
Report Text: KIND 220554Z 03009KT 10SM FEW029 07/02 A3021 RMK AO2 SLP232 T00670022 10100 20067 53007
Loading
Personal Weather Stations






























Interactive Weather Map
Tropical Storm Tracking
New forecast layout! Learn more

10-Day Weather Forecast

Advertisements
Track Severe Weather on mobile